sensor_id;sensor_type;location;lat;lon;timestamp;P1;durP1;ratioP1;P2;durP2;ratioP2
22357;SDS011;11346;50.150;8.150;2022-07-24T00:00:37;8.33;;;5.27;;
22357;SDS011;11346;50.150;8.150;2022-07-24T00:03:06;11.20;;;5.60;;
22357;SDS011;11346;50.150;8.150;2022-07-24T00:05:33;6.60;;;5.63;;
22357;SDS011;11346;50.150;8.150;2022-07-24T00:08:00;5.80;;;5.20;;
22357;SDS011;11346;50.150;8.150;2022-07-24T00:10:27;7.47;;;5.50;;
22357;SDS011;11346;50.150;8.150;2022-07-24T00:12:56;6.30;;;5.50;;
22357;SDS011;11346;50.150;8.150;2022-07-24T00:15:23;9.33;;;5.20;;
22357;SDS011;11346;50.150;8.150;2022-07-24T00:17:50;8.13;;;5.27;;
22357;SDS011;11346;50.150;8.150;2022-07-24T00:20:18;7.93;;;5.17;;
22357;SDS011;11346;50.150;8.150;2022-07-24T00:22:46;6.53;;;5.27;;
22357;SDS011;11346;50.150;8.150;2022-07-24T00:25:14;6.00;;;5.40;;
22357;SDS011;11346;50.150;8.150;2022-07-24T00:27:41;7.60;;;5.30;;
22357;SDS011;11346;50.150;8.150;2022-07-24T00:30:08;7.67;;;5.70;;
22357;SDS011;11346;50.150;8.150;2022-07-24T00:32:35;7.93;;;5.17;;
22357;SDS011;11346;50.150;8.150;2022-07-24T00:35:03;7.00;;;5.50;;
22357;SDS011;11346;50.150;8.150;2022-07-24T00:37:31;10.67;;;5.73;;
22357;SDS011;11346;50.150;8.150;2022-07-24T00:39:58;7.03;;;5.70;;
22357;SDS011;11346;50.150;8.150;2022-07-24T00:42:26;10.70;;;5.70;;
22357;SDS011;11346;50.150;8.150;2022-07-24T00:44:53;8.97;;;5.80;;
22357;SDS011;11346;50.150;8.150;2022-07-24T00:47:20;6.90;;;6.20;;
22357;SDS011;11346;50.150;8.150;2022-07-24T00:49:48;7.33;;;5.87;;
22357;SDS011;11346;50.150;8.150;2022-07-24T00:52:15;6.30;;;5.60;;
22357;SDS011;11346;50.150;8.150;2022-07-24T00:54:43;5.80;;;5.20;;
22357;SDS011;11346;50.150;8.150;2022-07-24T00:57:11;5.73;;;5.13;;
22357;SDS011;11346;50.150;8.150;2022-07-24T00:59:38;7.73;;;5.40;;
22357;SDS011;11346;50.150;8.150;2022-07-24T01:02:05;5.83;;;5.23;;
22357;SDS011;11346;50.150;8.150;2022-07-24T01:04:32;5.27;;;4.80;;
22357;SDS011;11346;50.150;8.150;2022-07-24T01:07:00;6.70;;;5.67;;
22357;SDS011;11346;50.150;8.150;2022-07-24T01:09:27;6.27;;;5.67;;
22357;SDS011;11346;50.150;8.150;2022-07-24T01:11:55;8.23;;;5.97;;
22357;SDS011;11346;50.150;8.150;2022-07-24T01:14:23;6.93;;;5.10;;
22357;SDS011;11346;50.150;8.150;2022-07-24T01:16:50;6.70;;;5.80;;
22357;SDS011;11346;50.150;8.150;2022-07-24T01:19:17;8.90;;;5.80;;
22357;SDS011;11346;50.150;8.150;2022-07-24T01:21:46;6.87;;;5.73;;
22357;SDS011;11346;50.150;8.150;2022-07-24T01:24:13;7.07;;;5.50;;
22357;SDS011;11346;50.150;8.150;2022-07-24T01:26:40;7.07;;;5.40;;
22357;SDS011;11346;50.150;8.150;2022-07-24T01:29:08;7.87;;;5.80;;
22357;SDS011;11346;50.150;8.150;2022-07-24T01:31:35;9.00;;;6.43;;
22357;SDS011;11346;50.150;8.150;2022-07-24T01:34:02;7.10;;;6.00;;
22357;SDS011;11346;50.150;8.150;2022-07-24T01:36:30;8.10;;;5.90;;
22357;SDS011;11346;50.150;8.150;2022-07-24T01:38:58;7.37;;;6.03;;
22357;SDS011;11346;50.150;8.150;2022-07-24T01:41:25;7.47;;;5.57;;
22357;SDS011;11346;50.150;8.150;2022-07-24T01:43:52;7.33;;;6.20;;
22357;SDS011;11346;50.150;8.150;2022-07-24T01:46:20;6.90;;;5.40;;
22357;SDS011;11346;50.150;8.150;2022-07-24T01:48:47;7.33;;;6.63;;
22357;SDS011;11346;50.150;8.150;2022-07-24T01:51:14;7.23;;;5.70;;
22357;SDS011;11346;50.150;8.150;2022-07-24T01:53:42;13.37;;;6.80;;
22357;SDS011;11346;50.150;8.150;2022-07-24T01:56:10;8.93;;;6.20;;
22357;SDS011;11346;50.150;8.150;2022-07-24T01:58:37;6.27;;;5.40;;
22357;SDS011;11346;50.150;8.150;2022-07-24T02:01:05;6.67;;;5.97;;
22357;SDS011;11346;50.150;8.150;2022-07-24T02:03:32;6.87;;;5.73;;
22357;SDS011;11346;50.150;8.150;2022-07-24T02:05:59;7.30;;;6.13;;
22357;SDS011;11346;50.150;8.150;2022-07-24T02:08:26;7.97;;;6.10;;
22357;SDS011;11346;50.150;8.150;2022-07-24T02:10:53;10.03;;;5.73;;
22357;SDS011;11346;50.150;8.150;2022-07-24T02:13:22;7.33;;;6.10;;
22357;SDS011;11346;50.150;8.150;2022-07-24T02:15:51;6.77;;;6.07;;
22357;SDS011;11346;50.150;8.150;2022-07-24T02:18:18;7.27;;;5.70;;
22357;SDS011;11346;50.150;8.150;2022-07-24T02:20:45;10.03;;;6.33;;
22357;SDS011;11346;50.150;8.150;2022-07-24T02:23:12;6.77;;;6.07;;
22357;SDS011;11346;50.150;8.150;2022-07-24T02:25:42;6.90;;;6.20;;
22357;SDS011;11346;50.150;8.150;2022-07-24T02:28:10;6.83;;;6.10;;
22357;SDS011;11346;50.150;8.150;2022-07-24T02:30:39;6.70;;;6.10;;
22357;SDS011;11346;50.150;8.150;2022-07-24T02:33:06;6.33;;;5.73;;
22357;SDS011;11346;50.150;8.150;2022-07-24T02:35:33;8.37;;;6.47;;
22357;SDS011;11346;50.150;8.150;2022-07-24T02:38:00;7.80;;;6.10;;
22357;SDS011;11346;50.150;8.150;2022-07-24T02:40:28;6.50;;;5.90;;
22357;SDS011;11346;50.150;8.150;2022-07-24T02:42:55;8.20;;;5.67;;
22357;SDS011;11346;50.150;8.150;2022-07-24T02:45:22;6.93;;;5.73;;
22357;SDS011;11346;50.150;8.150;2022-07-24T02:47:51;7.23;;;5.23;;
22357;SDS011;11346;50.150;8.150;2022-07-24T02:50:19;7.83;;;5.60;;
22357;SDS011;11346;50.150;8.150;2022-07-24T02:52:46;5.93;;;5.30;;
22357;SDS011;11346;50.150;8.150;2022-07-24T02:55:13;9.03;;;6.00;;
22357;SDS011;11346;50.150;8.150;2022-07-24T02:57:41;6.57;;;5.87;;
22357;SDS011;11346;50.150;8.150;2022-07-24T03:00:09;8.87;;;5.97;;
22357;SDS011;11346;50.150;8.150;2022-07-24T03:02:36;9.20;;;5.60;;
22357;SDS011;11346;50.150;8.150;2022-07-24T03:05:05;7.40;;;6.00;;
22357;SDS011;11346;50.150;8.150;2022-07-24T03:07:33;8.13;;;6.40;;
22357;SDS011;11346;50.150;8.150;2022-07-24T03:10:02;6.43;;;5.80;;
22357;SDS011;11346;50.150;8.150;2022-07-24T03:12:29;8.27;;;5.70;;
22357;SDS011;11346;50.150;8.150;2022-07-24T03:14:56;7.97;;;6.17;;
22357;SDS011;11346;50.150;8.150;2022-07-24T03:17:23;11.70;;;5.90;;
22357;SDS011;11346;50.150;8.150;2022-07-24T03:19:50;9.57;;;6.07;;
22357;SDS011;11346;50.150;8.150;2022-07-24T03:22:19;12.27;;;5.50;;
22357;SDS011;11346;50.150;8.150;2022-07-24T03:24:46;7.13;;;5.27;;
22357;SDS011;11346;50.150;8.150;2022-07-24T03:27:13;7.13;;;5.77;;
22357;SDS011;11346;50.150;8.150;2022-07-24T03:29:41;6.30;;;5.50;;
22357;SDS011;11346;50.150;8.150;2022-07-24T03:32:08;6.23;;;5.33;;
22357;SDS011;11346;50.150;8.150;2022-07-24T03:34:35;7.40;;;5.30;;
22357;SDS011;11346;50.150;8.150;2022-07-24T03:37:02;7.30;;;5.70;;
22357;SDS011;11346;50.150;8.150;2022-07-24T03:39:30;10.73;;;5.70;;
22357;SDS011;11346;50.150;8.150;2022-07-24T03:41:58;7.17;;;5.13;;
22357;SDS011;11346;50.150;8.150;2022-07-24T03:44:25;5.87;;;5.30;;
22357;SDS011;11346;50.150;8.150;2022-07-24T03:46:52;7.63;;;5.93;;
22357;SDS011;11346;50.150;8.150;2022-07-24T03:49:19;7.03;;;5.90;;
22357;SDS011;11346;50.150;8.150;2022-07-24T03:51:46;7.10;;;5.03;;
22357;SDS011;11346;50.150;8.150;2022-07-24T03:54:13;6.23;;;5.60;;
22357;SDS011;11346;50.150;8.150;2022-07-24T03:56:43;7.00;;;5.80;;
22357;SDS011;11346;50.150;8.150;2022-07-24T03:59:10;7.23;;;6.13;;
22357;SDS011;11346;50.150;8.150;2022-07-24T04:01:37;6.53;;;5.93;;
22357;SDS011;11346;50.150;8.150;2022-07-24T04:04:04;6.07;;;5.30;;
22357;SDS011;11346;50.150;8.150;2022-07-24T04:06:31;8.17;;;5.53;;
22357;SDS011;11346;50.150;8.150;2022-07-24T04:08:58;8.50;;;6.00;;
22357;SDS011;11346;50.150;8.150;2022-07-24T04:11:26;6.20;;;5.50;;
22357;SDS011;11346;50.150;8.150;2022-07-24T04:13:54;6.10;;;5.50;;
22357;SDS011;11346;50.150;8.150;2022-07-24T04:16:21;6.00;;;5.40;;
22357;SDS011;11346;50.150;8.150;2022-07-24T04:18:49;5.93;;;5.33;;
22357;SDS011;11346;50.150;8.150;2022-07-24T04:21:16;6.10;;;5.50;;
22357;SDS011;11346;50.150;8.150;2022-07-24T04:23:43;6.33;;;5.60;;
22357;SDS011;11346;50.150;8.150;2022-07-24T04:26:10;7.10;;;5.70;;
22357;SDS011;11346;50.150;8.150;2022-07-24T04:28:37;6.33;;;5.37;;
22357;SDS011;11346;50.150;8.150;2022-07-24T04:31:08;5.77;;;5.13;;
22357;SDS011;11346;50.150;8.150;2022-07-24T04:33:35;7.07;;;4.80;;
22357;SDS011;11346;50.150;8.150;2022-07-24T04:36:03;9.20;;;5.47;;
22357;SDS011;11346;50.150;8.150;2022-07-24T04:38:31;8.17;;;5.33;;
22357;SDS011;11346;50.150;8.150;2022-07-24T04:40:58;5.57;;;5.00;;
22357;SDS011;11346;50.150;8.150;2022-07-24T04:43:25;11.17;;;6.30;;
22357;SDS011;11346;50.150;8.150;2022-07-24T04:45:52;8.27;;;5.87;;
22357;SDS011;11346;50.150;8.150;2022-07-24T04:48:21;6.53;;;5.70;;
22357;SDS011;11346;50.150;8.150;2022-07-24T04:50:50;6.93;;;5.67;;
22357;SDS011;11346;50.150;8.150;2022-07-24T04:53:17;8.27;;;5.57;;
22357;SDS011;11346;50.150;8.150;2022-07-24T04:55:44;9.73;;;5.70;;
22357;SDS011;11346;50.150;8.150;2022-07-24T04:58:11;7.23;;;5.80;;
22357;SDS011;11346;50.150;8.150;2022-07-24T05:00:38;12.03;;;5.60;;
22357;SDS011;11346;50.150;8.150;2022-07-24T05:03:06;7.63;;;5.77;;
22357;SDS011;11346;50.150;8.150;2022-07-24T05:05:34;9.17;;;5.63;;
22357;SDS011;11346;50.150;8.150;2022-07-24T05:08:01;6.57;;;5.80;;
22357;SDS011;11346;50.150;8.150;2022-07-24T05:10:29;8.63;;;6.07;;
22357;SDS011;11346;50.150;8.150;2022-07-24T05:12:56;8.47;;;5.80;;
22357;SDS011;11346;50.150;8.150;2022-07-24T05:15:23;6.10;;;5.50;;
22357;SDS011;11346;50.150;8.150;2022-07-24T05:17:50;10.43;;;5.70;;
22357;SDS011;11346;50.150;8.150;2022-07-24T05:20:17;6.90;;;5.60;;
22357;SDS011;11346;50.150;8.150;2022-07-24T05:22:45;12.70;;;5.77;;
22357;SDS011;11346;50.150;8.150;2022-07-24T05:25:13;9.17;;;5.97;;
22357;SDS011;11346;50.150;8.150;2022-07-24T05:27:40;6.87;;;6.10;;
22357;SDS011;11346;50.150;8.150;2022-07-24T05:30:07;6.30;;;5.50;;
22357;SDS011;11346;50.150;8.150;2022-07-24T05:32:35;6.87;;;5.33;;
22357;SDS011;11346;50.150;8.150;2022-07-24T05:35:02;6.73;;;5.70;;
22357;SDS011;11346;50.150;8.150;2022-07-24T05:37:29;6.07;;;5.47;;
22357;SDS011;11346;50.150;8.150;2022-07-24T05:39:58;6.90;;;5.90;;
22357;SDS011;11346;50.150;8.150;2022-07-24T05:42:25;6.07;;;5.47;;
22357;SDS011;11346;50.150;8.150;2022-07-24T05:44:52;7.87;;;5.50;;
22357;SDS011;11346;50.150;8.150;2022-07-24T05:47:19;10.47;;;5.97;;
22357;SDS011;11346;50.150;8.150;2022-07-24T05:49:46;6.53;;;5.83;;
22357;SDS011;11346;50.150;8.150;2022-07-24T05:52:13;6.67;;;5.97;;
22357;SDS011;11346;50.150;8.150;2022-07-24T05:54:40;6.73;;;6.03;;
22357;SDS011;11346;50.150;8.150;2022-07-24T05:57:09;11.27;;;6.00;;
22357;SDS011;11346;50.150;8.150;2022-07-24T05:59:36;7.50;;;6.00;;
22357;SDS011;11346;50.150;8.150;2022-07-24T06:02:03;10.13;;;6.13;;
22357;SDS011;11346;50.150;8.150;2022-07-24T06:04:30;6.30;;;5.70;;
22357;SDS011;11346;50.150;8.150;2022-07-24T06:06:58;7.83;;;6.03;;
22357;SDS011;11346;50.150;8.150;2022-07-24T06:09:25;7.30;;;6.13;;
22357;SDS011;11346;50.150;8.150;2022-07-24T06:11:52;10.20;;;6.50;;
22357;SDS011;11346;50.150;8.150;2022-07-24T06:14:21;6.60;;;6.00;;
22357;SDS011;11346;50.150;8.150;2022-07-24T06:16:48;9.83;;;5.90;;
22357;SDS011;11346;50.150;8.150;2022-07-24T06:19:15;9.70;;;6.00;;
22357;SDS011;11346;50.150;8.150;2022-07-24T06:21:42;6.33;;;5.40;;
22357;SDS011;11346;50.150;8.150;2022-07-24T06:24:09;9.57;;;6.00;;
22357;SDS011;11346;50.150;8.150;2022-07-24T06:26:37;7.70;;;5.80;;
22357;SDS011;11346;50.150;8.150;2022-07-24T06:29:12;7.70;;;6.00;;
22357;SDS011;11346;50.150;8.150;2022-07-24T06:31:43;11.37;;;5.80;;
22357;SDS011;11346;50.150;8.150;2022-07-24T06:34:10;6.20;;;4.83;;
22357;SDS011;11346;50.150;8.150;2022-07-24T06:36:37;5.83;;;5.13;;
22357;SDS011;11346;50.150;8.150;2022-07-24T06:39:04;6.60;;;5.90;;
22357;SDS011;11346;50.150;8.150;2022-07-24T06:41:32;5.40;;;4.90;;
22357;SDS011;11346;50.150;8.150;2022-07-24T06:43:59;9.10;;;5.60;;
22357;SDS011;11346;50.150;8.150;2022-07-24T06:46:26;8.33;;;5.47;;
22357;SDS011;11346;50.150;8.150;2022-07-24T06:48:54;6.23;;;5.00;;
22357;SDS011;11346;50.150;8.150;2022-07-24T06:51:22;7.30;;;5.20;;
22357;SDS011;11346;50.150;8.150;2022-07-24T06:53:49;5.50;;;5.00;;
22357;SDS011;11346;50.150;8.150;2022-07-24T06:56:16;5.97;;;5.07;;
22357;SDS011;11346;50.150;8.150;2022-07-24T06:58:44;6.40;;;4.27;;
22357;SDS011;11346;50.150;8.150;2022-07-24T07:01:11;6.83;;;4.67;;
22357;SDS011;11346;50.150;8.150;2022-07-24T07:03:38;6.03;;;4.90;;
22357;SDS011;11346;50.150;8.150;2022-07-24T07:06:07;7.30;;;4.70;;
22357;SDS011;11346;50.150;8.150;2022-07-24T07:08:34;6.47;;;4.37;;
22357;SDS011;11346;50.150;8.150;2022-07-24T07:11:01;7.07;;;4.40;;
22357;SDS011;11346;50.150;8.150;2022-07-24T07:13:28;8.13;;;4.63;;
22357;SDS011;11346;50.150;8.150;2022-07-24T07:15:55;4.80;;;4.40;;
22357;SDS011;11346;50.150;8.150;2022-07-24T07:18:22;7.60;;;4.60;;
22357;SDS011;11346;50.150;8.150;2022-07-24T07:20:49;4.87;;;3.83;;
22357;SDS011;11346;50.150;8.150;2022-07-24T07:23:20;4.40;;;4.07;;
22357;SDS011;11346;50.150;8.150;2022-07-24T07:25:48;4.53;;;4.07;;
22357;SDS011;11346;50.150;8.150;2022-07-24T07:28:15;5.57;;;3.93;;
22357;SDS011;11346;50.150;8.150;2022-07-24T07:30:42;5.53;;;3.70;;
22357;SDS011;11346;50.150;8.150;2022-07-24T07:33:09;6.43;;;3.90;;
22357;SDS011;11346;50.150;8.150;2022-07-24T07:35:36;5.37;;;4.00;;
22357;SDS011;11346;50.150;8.150;2022-07-24T07:38:03;6.13;;;3.80;;
22357;SDS011;11346;50.150;8.150;2022-07-24T07:40:32;4.90;;;4.00;;
22357;SDS011;11346;50.150;8.150;2022-07-24T07:42:59;4.50;;;4.10;;
22357;SDS011;11346;50.150;8.150;2022-07-24T07:45:26;4.67;;;4.03;;
22357;SDS011;11346;50.150;8.150;2022-07-24T07:47:53;7.97;;;3.93;;
22357;SDS011;11346;50.150;8.150;2022-07-24T07:50:21;4.63;;;3.87;;
22357;SDS011;11346;50.150;8.150;2022-07-24T07:52:48;5.23;;;3.80;;
22357;SDS011;11346;50.150;8.150;2022-07-24T07:55:15;6.23;;;4.03;;
22357;SDS011;11346;50.150;8.150;2022-07-24T07:57:43;5.37;;;4.17;;
22357;SDS011;11346;50.150;8.150;2022-07-24T08:00:11;6.07;;;3.77;;
22357;SDS011;11346;50.150;8.150;2022-07-24T08:02:38;4.67;;;3.77;;
22357;SDS011;11346;50.150;8.150;2022-07-24T08:05:06;4.37;;;3.77;;
22357;SDS011;11346;50.150;8.150;2022-07-24T08:07:34;6.17;;;4.47;;
22357;SDS011;11346;50.150;8.150;2022-07-24T08:10:02;5.37;;;4.30;;
22357;SDS011;11346;50.150;8.150;2022-07-24T08:12:31;4.57;;;3.67;;
22357;SDS011;11346;50.150;8.150;2022-07-24T08:15:00;5.43;;;4.37;;
22357;SDS011;11346;50.150;8.150;2022-07-24T08:17:27;4.40;;;4.00;;
22357;SDS011;11346;50.150;8.150;2022-07-24T08:19:54;4.63;;;4.13;;
22357;SDS011;11346;50.150;8.150;2022-07-24T08:22:21;5.10;;;4.40;;
22357;SDS011;11346;50.150;8.150;2022-07-24T08:24:48;4.43;;;4.03;;
22357;SDS011;11346;50.150;8.150;2022-07-24T08:27:15;5.13;;;4.67;;
22357;SDS011;11346;50.150;8.150;2022-07-24T08:29:42;4.77;;;4.17;;
22357;SDS011;11346;50.150;8.150;2022-07-24T08:32:11;5.77;;;4.10;;
22357;SDS011;11346;50.150;8.150;2022-07-24T08:34:38;4.30;;;3.90;;
22357;SDS011;11346;50.150;8.150;2022-07-24T08:37:05;6.70;;;4.53;;
22357;SDS011;11346;50.150;8.150;2022-07-24T08:39:32;5.77;;;3.93;;
22357;SDS011;11346;50.150;8.150;2022-07-24T08:42:00;4.33;;;3.90;;
22357;SDS011;11346;50.150;8.150;2022-07-24T08:44:27;5.47;;;4.50;;
22357;SDS011;11346;50.150;8.150;2022-07-24T08:46:54;5.47;;;4.20;;
22357;SDS011;11346;50.150;8.150;2022-07-24T08:49:25;5.17;;;3.90;;
22357;SDS011;11346;50.150;8.150;2022-07-24T08:51:53;4.67;;;4.17;;
22357;SDS011;11346;50.150;8.150;2022-07-24T08:54:21;5.20;;;3.97;;
22357;SDS011;11346;50.150;8.150;2022-07-24T08:56:48;4.73;;;4.00;;
22357;SDS011;11346;50.150;8.150;2022-07-24T08:59:15;6.37;;;4.63;;
22357;SDS011;11346;50.150;8.150;2022-07-24T09:01:43;5.20;;;4.70;;
22357;SDS011;11346;50.150;8.150;2022-07-24T09:06:56;6.73;;;4.47;;
22357;SDS011;11346;50.150;8.150;2022-07-24T09:09:24;5.23;;;4.30;;
22357;SDS011;11346;50.150;8.150;2022-07-24T09:11:58;6.30;;;4.13;;
22357;SDS011;11346;50.150;8.150;2022-07-24T09:14:29;4.97;;;4.40;;
22357;SDS011;11346;50.150;8.150;2022-07-24T09:17:01;6.30;;;4.10;;
22357;SDS011;11346;50.150;8.150;2022-07-24T09:19:28;5.33;;;4.60;;
22357;SDS011;11346;50.150;8.150;2022-07-24T09:21:57;6.20;;;4.23;;
22357;SDS011;11346;50.150;8.150;2022-07-24T09:24:24;5.20;;;4.40;;
22357;SDS011;11346;50.150;8.150;2022-07-24T09:26:52;6.20;;;4.20;;
22357;SDS011;11346;50.150;8.150;2022-07-24T09:29:20;5.00;;;4.50;;
22357;SDS011;11346;50.150;8.150;2022-07-24T09:31:49;6.30;;;4.30;;
22357;SDS011;11346;50.150;8.150;2022-07-24T09:34:16;6.17;;;4.20;;
22357;SDS011;11346;50.150;8.150;2022-07-24T09:36:50;5.17;;;4.07;;
22357;SDS011;11346;50.150;8.150;2022-07-24T09:39:22;5.07;;;4.40;;
22357;SDS011;11346;50.150;8.150;2022-07-24T09:41:50;6.20;;;4.57;;
22357;SDS011;11346;50.150;8.150;2022-07-24T09:44:18;4.73;;;4.30;;
22357;SDS011;11346;50.150;8.150;2022-07-24T09:46:46;4.80;;;4.30;;
22357;SDS011;11346;50.150;8.150;2022-07-24T09:49:18;4.97;;;4.47;;
22357;SDS011;11346;50.150;8.150;2022-07-24T09:51:46;5.30;;;4.80;;
22357;SDS011;11346;50.150;8.150;2022-07-24T09:54:39;6.33;;;5.07;;
22357;SDS011;11346;50.150;8.150;2022-07-24T09:57:20;8.07;;;5.13;;
22357;SDS011;11346;50.150;8.150;2022-07-24T09:59:48;5.40;;;4.70;;
22357;SDS011;11346;50.150;8.150;2022-07-24T10:02:16;7.70;;;5.00;;
22357;SDS011;11346;50.150;8.150;2022-07-24T10:04:44;6.63;;;5.43;;
22357;SDS011;11346;50.150;8.150;2022-07-24T10:07:12;5.93;;;4.90;;
22357;SDS011;11346;50.150;8.150;2022-07-24T10:09:46;5.90;;;4.70;;
22357;SDS011;11346;50.150;8.150;2022-07-24T10:12:14;6.00;;;4.77;;
22357;SDS011;11346;50.150;8.150;2022-07-24T10:14:42;9.43;;;4.87;;
22357;SDS011;11346;50.150;8.150;2022-07-24T10:17:11;5.83;;;4.30;;
22357;SDS011;11346;50.150;8.150;2022-07-24T10:19:39;5.07;;;4.50;;
22357;SDS011;11346;50.150;8.150;2022-07-24T10:22:08;7.63;;;5.20;;
22357;SDS011;11346;50.150;8.150;2022-07-24T10:27:24;6.20;;;4.50;;
22357;SDS011;11346;50.150;8.150;2022-07-24T10:29:51;5.30;;;4.80;;
22357;SDS011;11346;50.150;8.150;2022-07-24T10:32:19;5.43;;;4.83;;
22357;SDS011;11346;50.150;8.150;2022-07-24T10:34:46;5.53;;;4.83;;
22357;SDS011;11346;50.150;8.150;2022-07-24T10:37:15;8.07;;;4.57;;
22357;SDS011;11346;50.150;8.150;2022-07-24T10:39:47;4.83;;;4.20;;
22357;SDS011;11346;50.150;8.150;2022-07-24T10:42:17;4.80;;;4.40;;
22357;SDS011;11346;50.150;8.150;2022-07-24T10:44:46;4.77;;;4.37;;
22357;SDS011;11346;50.150;8.150;2022-07-24T10:47:32;4.80;;;4.30;;
22357;SDS011;11346;50.150;8.150;2022-07-24T10:50:00;5.43;;;4.23;;
22357;SDS011;11346;50.150;8.150;2022-07-24T10:52:30;6.90;;;4.20;;
22357;SDS011;11346;50.150;8.150;2022-07-24T10:57:47;4.57;;;3.77;;
22357;SDS011;11346;50.150;8.150;2022-07-24T11:00:26;6.30;;;4.40;;
22357;SDS011;11346;50.150;8.150;2022-07-24T11:02:57;4.50;;;4.10;;
22357;SDS011;11346;50.150;8.150;2022-07-24T11:05:26;4.80;;;4.00;;
22357;SDS011;11346;50.150;8.150;2022-07-24T11:10:43;4.67;;;3.90;;
22357;SDS011;11346;50.150;8.150;2022-07-24T11:19:23;7.00;;;4.20;;
22357;SDS011;11346;50.150;8.150;2022-07-24T11:21:30;4.20;;;3.80;;
22357;SDS011;11346;50.150;8.150;2022-07-24T11:24:14;5.27;;;4.10;;
22357;SDS011;11346;50.150;8.150;2022-07-24T11:26:45;4.97;;;4.47;;
22357;SDS011;11346;50.150;8.150;2022-07-24T11:29:12;6.13;;;4.07;;
22357;SDS011;11346;50.150;8.150;2022-07-24T11:31:40;5.20;;;4.20;;
22357;SDS011;11346;50.150;8.150;2022-07-24T11:34:09;5.53;;;4.10;;
22357;SDS011;11346;50.150;8.150;2022-07-24T11:36:38;5.60;;;4.23;;
22357;SDS011;11346;50.150;8.150;2022-07-24T11:39:06;4.70;;;4.20;;
22357;SDS011;11346;50.150;8.150;2022-07-24T11:41:42;5.73;;;4.47;;
22357;SDS011;11346;50.150;8.150;2022-07-24T11:44:10;5.07;;;4.37;;
22357;SDS011;11346;50.150;8.150;2022-07-24T11:46:38;4.63;;;3.90;;
22357;SDS011;11346;50.150;8.150;2022-07-24T11:49:06;4.83;;;4.10;;
22357;SDS011;11346;50.150;8.150;2022-07-24T11:51:41;5.60;;;4.27;;
22357;SDS011;11346;50.150;8.150;2022-07-24T11:54:08;5.13;;;4.00;;
22357;SDS011;11346;50.150;8.150;2022-07-24T11:56:35;4.57;;;4.13;;
22357;SDS011;11346;50.150;8.150;2022-07-24T11:59:02;4.37;;;3.90;;
22357;SDS011;11346;50.150;8.150;2022-07-24T12:01:29;4.30;;;3.90;;
22357;SDS011;11346;50.150;8.150;2022-07-24T12:03:57;6.93;;;4.47;;
22357;SDS011;11346;50.150;8.150;2022-07-24T12:06:25;4.87;;;3.87;;
22357;SDS011;11346;50.150;8.150;2022-07-24T12:08:57;4.73;;;4.33;;
22357;SDS011;11346;50.150;8.150;2022-07-24T12:11:24;4.87;;;3.63;;
22357;SDS011;11346;50.150;8.150;2022-07-24T12:13:51;5.20;;;4.20;;
22357;SDS011;11346;50.150;8.150;2022-07-24T12:16:24;4.77;;;4.03;;
22357;SDS011;11346;50.150;8.150;2022-07-24T12:18:54;4.23;;;3.83;;
22357;SDS011;11346;50.150;8.150;2022-07-24T12:21:37;5.60;;;3.60;;
22357;SDS011;11346;50.150;8.150;2022-07-24T12:24:06;4.23;;;3.83;;
22357;SDS011;11346;50.150;8.150;2022-07-24T12:26:34;4.20;;;3.80;;
22357;SDS011;11346;50.150;8.150;2022-07-24T12:29:10;4.67;;;4.07;;
22357;SDS011;11346;50.150;8.150;2022-07-24T12:31:37;3.93;;;3.63;;
22357;SDS011;11346;50.150;8.150;2022-07-24T12:34:04;6.60;;;3.80;;
22357;SDS011;11346;50.150;8.150;2022-07-24T12:36:31;4.10;;;3.70;;
22357;SDS011;11346;50.150;8.150;2022-07-24T12:38:59;4.50;;;4.10;;
22357;SDS011;11346;50.150;8.150;2022-07-24T12:41:29;5.50;;;4.07;;
22357;SDS011;11346;50.150;8.150;2022-07-24T12:43:57;5.63;;;3.80;;
22357;SDS011;11346;50.150;8.150;2022-07-24T12:46:30;4.20;;;3.80;;
22357;SDS011;11346;50.150;8.150;2022-07-24T12:48:58;4.93;;;4.23;;
22357;SDS011;11346;50.150;8.150;2022-07-24T12:51:26;4.37;;;3.97;;
22357;SDS011;11346;50.150;8.150;2022-07-24T12:53:54;4.50;;;4.10;;
22357;SDS011;11346;50.150;8.150;2022-07-24T12:56:22;4.27;;;3.93;;
22357;SDS011;11346;50.150;8.150;2022-07-24T12:58:54;4.10;;;3.70;;
22357;SDS011;11346;50.150;8.150;2022-07-24T13:01:22;4.23;;;3.67;;
22357;SDS011;11346;50.150;8.150;2022-07-24T13:03:50;3.90;;;3.60;;
22357;SDS011;11346;50.150;8.150;2022-07-24T13:06:18;4.93;;;4.03;;
22357;SDS011;11346;50.150;8.150;2022-07-24T13:08:45;7.13;;;3.80;;
22357;SDS011;11346;50.150;8.150;2022-07-24T13:11:12;4.97;;;3.63;;
22357;SDS011;11346;50.150;8.150;2022-07-24T13:13:39;5.33;;;3.83;;
22357;SDS011;11346;50.150;8.150;2022-07-24T13:16:08;4.00;;;3.70;;
22357;SDS011;11346;50.150;8.150;2022-07-24T13:18:35;6.57;;;4.00;;
22357;SDS011;11346;50.150;8.150;2022-07-24T13:21:02;4.13;;;3.73;;
22357;SDS011;11346;50.150;8.150;2022-07-24T13:23:29;5.60;;;4.60;;
22357;SDS011;11346;50.150;8.150;2022-07-24T13:25:57;4.90;;;4.40;;
22357;SDS011;11346;50.150;8.150;2022-07-24T13:28:24;4.90;;;4.40;;
22357;SDS011;11346;50.150;8.150;2022-07-24T13:30:51;5.43;;;4.57;;
22357;SDS011;11346;50.150;8.150;2022-07-24T13:33:19;8.50;;;4.60;;
22357;SDS011;11346;50.150;8.150;2022-07-24T13:35:46;8.50;;;5.00;;
22357;SDS011;11346;50.150;8.150;2022-07-24T13:38:14;5.40;;;4.90;;
22357;SDS011;11346;50.150;8.150;2022-07-24T13:40:41;7.67;;;5.20;;
22357;SDS011;11346;50.150;8.150;2022-07-24T13:43:08;5.30;;;4.80;;
22357;SDS011;11346;50.150;8.150;2022-07-24T13:45:35;4.90;;;4.50;;
22357;SDS011;11346;50.150;8.150;2022-07-24T13:48:02;9.70;;;5.27;;
22357;SDS011;11346;50.150;8.150;2022-07-24T13:50:31;5.80;;;5.20;;
22357;SDS011;11346;50.150;8.150;2022-07-24T13:52:58;6.60;;;5.63;;
22357;SDS011;11346;50.150;8.150;2022-07-24T13:55:25;6.37;;;5.00;;
22357;SDS011;11346;50.150;8.150;2022-07-24T13:57:52;6.83;;;5.00;;
22357;SDS011;11346;50.150;8.150;2022-07-24T14:00:19;6.13;;;5.63;;
22357;SDS011;11346;50.150;8.150;2022-07-24T14:02:48;5.40;;;5.00;;
22357;SDS011;11346;50.150;8.150;2022-07-24T14:05:20;6.23;;;5.50;;
22357;SDS011;11346;50.150;8.150;2022-07-24T14:07:48;7.30;;;5.40;;
22357;SDS011;11346;50.150;8.150;2022-07-24T14:10:15;7.13;;;5.20;;
22357;SDS011;11346;50.150;8.150;2022-07-24T14:12:43;5.90;;;5.30;;
22357;SDS011;11346;50.150;8.150;2022-07-24T14:15:10;6.37;;;5.17;;
22357;SDS011;11346;50.150;8.150;2022-07-24T14:17:38;5.60;;;5.10;;
22357;SDS011;11346;50.150;8.150;2022-07-24T14:20:05;5.90;;;5.30;;
22357;SDS011;11346;50.150;8.150;2022-07-24T14:22:33;8.23;;;5.10;;
22357;SDS011;11346;50.150;8.150;2022-07-24T14:25:02;5.97;;;5.37;;
22357;SDS011;11346;50.150;8.150;2022-07-24T14:27:29;5.80;;;4.77;;
22357;SDS011;11346;50.150;8.150;2022-07-24T14:29:57;7.13;;;5.43;;
22357;SDS011;11346;50.150;8.150;2022-07-24T14:32:24;5.30;;;4.90;;
22357;SDS011;11346;50.150;8.150;2022-07-24T14:34:51;7.30;;;5.20;;
22357;SDS011;11346;50.150;8.150;2022-07-24T14:37:18;5.57;;;5.00;;
22357;SDS011;11346;50.150;8.150;2022-07-24T14:39:46;5.53;;;4.67;;
22357;SDS011;11346;50.150;8.150;2022-07-24T14:42:14;5.67;;;5.13;;
22357;SDS011;11346;50.150;8.150;2022-07-24T14:44:41;7.00;;;5.20;;
22357;SDS011;11346;50.150;8.150;2022-07-24T14:47:08;6.87;;;4.93;;
22357;SDS011;11346;50.150;8.150;2022-07-24T14:49:35;7.57;;;5.23;;
22357;SDS011;11346;50.150;8.150;2022-07-24T14:52:03;5.50;;;5.00;;
22357;SDS011;11346;50.150;8.150;2022-07-24T14:54:30;6.23;;;5.30;;
22357;SDS011;11346;50.150;8.150;2022-07-24T14:56:57;5.53;;;4.87;;
22357;SDS011;11346;50.150;8.150;2022-07-24T14:59:27;8.17;;;5.20;;
22357;SDS011;11346;50.150;8.150;2022-07-24T15:01:54;6.40;;;4.87;;
22357;SDS011;11346;50.150;8.150;2022-07-24T15:04:21;5.83;;;5.03;;
22357;SDS011;11346;50.150;8.150;2022-07-24T15:06:48;6.30;;;5.30;;
22357;SDS011;11346;50.150;8.150;2022-07-24T15:09:15;8.30;;;5.40;;